Time;durP1;ratioP1;P1;durP2;ratioP2;P2;SDS_P1;SDS_P2;PMS_P1;PMS_P2;Temp;Humidity;BMP_temperature;BMP_pressure;BME280_temperature;BME280_humidity;BME280_pressure;Samples;Min_cycle;Max_cycle;Signal;HPM_P1;HPM_P2
2022/05/15 00:01:18;;;;;;;5.00;2.90;;;14.50;99.90;;;;;;5077264;28;20485;-46
2022/05/15 00:03:45;;;;;;;7.90;2.70;;;14.50;99.90;;;;;;5076696;28;20455;-42
2022/05/15 00:06:12;;;;;;;6.57;3.17;;;14.50;99.90;;;;;;5076634;28;20460;-40
2022/05/15 00:08:39;;;;;;;8.00;4.40;;;14.50;99.90;;;;;;5076826;28;20439;-40
2022/05/15 00:11:06;;;;;;;8.83;3.80;;;14.40;99.90;;;;;;5076379;28;20481;-41
2022/05/15 00:13:33;;;;;;;11.53;3.03;;;14.40;99.90;;;;;;5075600;28;20439;-39
2022/05/15 00:16:03;;;;;;;6.20;3.30;;;14.40;99.90;;;;;;5076696;28;20487;-37
2022/05/15 00:18:32;;;;;;;6.30;3.67;;;14.30;99.90;;;;;;5076296;28;20463;-45
2022/05/15 00:21:01;;;;;;;10.60;4.03;;;14.30;99.90;;;;;;5076153;28;20463;-42
2022/05/15 00:23:29;;;;;;;10.90;5.00;;;14.30;99.90;;;;;;5076731;28;20420;-39
2022/05/15 00:25:58;;;;;;;7.40;3.97;;;14.30;99.90;;;;;;5076540;28;20435;-41
2022/05/15 00:28:25;;;;;;;10.87;4.63;;;14.20;99.90;;;;;;5075133;28;20411;-39
2022/05/15 00:30:52;;;;;;;9.87;4.97;;;14.20;99.90;;;;;;5076356;28;20465;-38
2022/05/15 00:33:21;;;;;;;7.23;3.80;;;14.20;99.90;;;;;;5075930;28;20477;-42
2022/05/15 00:35:50;;;;;;;8.37;4.27;;;14.20;99.90;;;;;;5075441;28;20426;-40
2022/05/15 00:38:17;;;;;;;5.60;4.20;;;14.20;99.90;;;;;;5075721;28;20515;-40
2022/05/15 00:40:46;;;;;;;7.30;4.50;;;14.10;99.90;;;;;;5076078;28;20457;-35
2022/05/15 00:43:29;;;;;;;8.67;3.60;;;14.10;99.90;;;;;;5076162;28;20475;-43
2022/05/15 00:45:57;;;;;;;13.13;4.10;;;14.00;99.90;;;;;;5075541;28;20451;-39
2022/05/15 00:48:24;;;;;;;7.33;3.97;;;14.10;99.90;;;;;;5072420;28;20765;-42
2022/05/15 00:50:54;;;;;;;9.50;4.60;;;14.00;99.90;;;;;;5057543;28;20805;-42
2022/05/15 00:53:21;;;;;;;9.17;3.73;;;14.00;99.90;;;;;;5056727;28;20470;-39
2022/05/15 00:55:51;;;;;;;9.53;3.77;;;14.00;99.90;;;;;;5057266;28;20744;-41
2022/05/15 00:58:22;;;;;;;9.70;3.73;;;14.00;99.90;;;;;;5057018;28;20913;-41
2022/05/15 01:00:49;;;;;;;12.17;3.67;;;14.00;99.90;;;;;;5057265;28;20805;-43
2022/05/15 01:03:18;;;;;;;12.20;5.30;;;13.90;99.90;;;;;;5057205;28;20479;-47
2022/05/15 01:05:48;;;;;;;4.87;3.90;;;13.90;99.90;;;;;;5056903;28;20444;-40
2022/05/15 01:08:16;;;;;;;10.53;3.40;;;13.80;99.90;;;;;;5056673;28;20946;-38
2022/05/15 01:10:47;;;;;;;5.20;3.80;;;13.80;99.90;;;;;;5057136;28;20451;-42
2022/05/15 01:13:15;;;;;;;8.43;3.50;;;13.70;99.90;;;;;;5056539;28;20481;-40
2022/05/15 01:15:44;;;;;;;5.00;3.20;;;13.70;99.90;;;;;;5058230;28;20451;-43
2022/05/15 01:18:11;;;;;;;7.47;3.20;;;13.70;99.90;;;;;;5058665;28;20929;-43
2022/05/15 01:20:40;;;;;;;5.10;3.70;;;13.60;99.90;;;;;;5058567;28;20780;-44
2022/05/15 01:23:11;;;;;;;7.20;3.30;;;13.60;99.90;;;;;;5059428;28;20471;-44
2022/05/15 01:25:38;;;;;;;7.27;4.37;;;13.60;99.90;;;;;;5062350;28;20474;-43
2022/05/15 01:28:08;;;;;;;11.60;3.83;;;13.60;99.90;;;;;;5061148;28;20512;-41
2022/05/15 01:30:37;;;;;;;11.13;3.50;;;13.50;99.90;;;;;;5061438;28;20470;-41
2022/05/15 01:33:04;;;;;;;5.97;3.20;;;13.50;99.90;;;;;;5060759;28;20475;-42
2022/05/15 01:35:33;;;;;;;5.23;3.73;;;13.50;99.90;;;;;;5060401;28;20513;-41
2022/05/15 01:38:00;;;;;;;13.13;4.53;;;13.40;99.90;;;;;;5060806;28;20975;-41
2022/05/15 01:40:28;;;;;;;6.30;3.87;;;13.30;99.90;;;;;;5060625;28;20443;-42
2022/05/15 01:42:55;;;;;;;7.97;5.10;;;13.30;99.90;;;;;;5060726;28;20487;-40
2022/05/15 01:45:22;;;;;;;6.07;3.30;;;13.20;99.90;;;;;;5060580;28;20443;-40
2022/05/15 01:47:49;;;;;;;8.50;4.30;;;13.20;99.90;;;;;;5060554;28;20459;-41
2022/05/15 01:50:16;;;;;;;12.23;3.73;;;13.20;99.90;;;;;;5060452;28;20450;-41
2022/05/15 01:52:43;;;;;;;7.93;4.10;;;13.10;99.90;;;;;;5060079;28;20952;-42
2022/05/15 01:55:11;;;;;;;8.90;3.17;;;13.10;99.90;;;;;;5060936;28;20454;-42
2022/05/15 01:57:40;;;;;;;5.90;3.73;;;13.10;99.90;;;;;;5060209;28;20540;-41
2022/05/15 02:00:11;;;;;;;6.37;3.40;;;13.00;99.90;;;;;;5060406;28;20498;-42
2022/05/15 02:02:39;;;;;;;5.30;3.33;;;13.10;99.90;;;;;;5060516;28;20756;-42
2022/05/15 02:05:06;;;;;;;4.07;3.30;;;13.00;99.90;;;;;;5060591;28;20521;-40
2022/05/15 02:07:36;;;;;;;8.67;3.93;;;13.00;99.90;;;;;;5060527;28;20532;-41
2022/05/15 02:10:03;;;;;;;6.70;3.17;;;13.00;99.90;;;;;;5060182;28;20443;-41
2022/05/15 02:12:30;;;;;;;5.77;3.23;;;13.00;99.90;;;;;;5059921;28;20482;-39
2022/05/15 02:15:01;;;;;;;5.83;3.10;;;12.90;99.90;;;;;;5060275;28;20443;-42
2022/05/15 02:17:28;;;;;;;4.03;2.90;;;12.90;99.90;;;;;;5059810;28;20475;-38
2022/05/15 02:19:55;;;;;;;4.70;2.50;;;12.90;99.90;;;;;;5060072;28;20431;-41
2022/05/15 02:22:22;;;;;;;4.70;2.30;;;12.90;99.90;;;;;;5059784;28;20495;-41
2022/05/15 02:24:48;;;;;;;10.23;3.70;;;12.90;99.90;;;;;;5060209;28;20428;-40
2022/05/15 02:27:15;;;;;;;4.10;1.80;;;12.90;99.90;;;;;;5060204;28;20467;-41
2022/05/15 02:29:42;;;;;;;3.53;1.97;;;13.00;99.90;;;;;;5060340;28;20462;-38
2022/05/15 02:32:10;;;;;;;6.73;1.97;;;13.00;99.90;;;;;;5059719;28;20449;-40
2022/05/15 02:34:37;;;;;;;4.20;2.17;;;13.00;99.90;;;;;;5059753;28;20856;-41
2022/05/15 02:37:05;;;;;;;6.03;2.30;;;13.00;99.90;;;;;;5060629;28;20463;-37
2022/05/15 02:39:32;;;;;;;6.40;1.70;;;13.10;99.90;;;;;;5060266;28;20516;-39
2022/05/15 02:42:01;;;;;;;7.67;2.10;;;13.10;99.90;;;;;;5059953;28;20479;-39
2022/05/15 02:44:28;;;;;;;2.40;1.63;;;13.10;99.90;;;;;;5059836;28;20477;-48
2022/05/15 02:46:57;;;;;;;5.70;2.40;;;13.10;99.90;;;;;;5060221;28;20451;-40
2022/05/15 02:52:13;;;;;;;6.83;1.80;;;13.10;99.90;;;;;;5059505;28;20482;-41
2022/05/15 02:54:40;;;;;;;7.07;2.40;;;13.00;99.90;;;;;;5059571;28;20427;-41
2022/05/15 02:57:09;;;;;;;10.13;2.83;;;12.90;99.90;;;;;;5059525;28;20446;-41
2022/05/15 02:59:39;;;;;;;4.90;1.97;;;12.90;99.90;;;;;;5059328;28;20455;-42
2022/05/15 03:02:06;;;;;;;4.70;2.30;;;12.80;99.90;;;;;;5059399;28;20483;-43
2022/05/15 03:04:38;;;;;;;6.27;2.60;;;12.80;99.90;;;;;;5059341;28;20837;-40
2022/05/15 03:07:06;;;;;;;5.30;1.60;;;12.80;99.90;;;;;;5059382;28;20423;-43
2022/05/15 03:09:33;;;;;;;6.83;3.33;;;12.70;99.90;;;;;;5059414;28;20501;-41
2022/05/15 03:12:00;;;;;;;6.47;2.40;;;12.70;99.90;;;;;;5059107;28;20443;-40
2022/05/15 03:14:27;;;;;;;4.27;2.13;;;12.70;99.90;;;;;;5059122;28;20473;-43
2022/05/15 03:16:54;;;;;;;7.93;2.30;;;12.70;99.90;;;;;;5059011;28;20467;-39
2022/05/15 03:19:24;;;;;;;6.93;2.33;;;12.70;99.90;;;;;;5059095;28;20451;-39
2022/05/15 03:21:52;;;;;;;9.23;2.40;;;12.70;99.90;;;;;;5059234;28;20513;-40
2022/05/15 03:24:19;;;;;;;4.40;2.20;;;12.70;99.90;;;;;;5059492;28;20553;-40
2022/05/15 03:26:48;;;;;;;7.70;2.80;;;12.70;99.90;;;;;;5059809;28;20440;-40
2022/05/15 03:29:21;;;;;;;7.00;2.03;;;12.60;99.90;;;;;;5058958;28;20472;-42
2022/05/15 03:31:48;;;;;;;10.37;2.70;;;12.60;99.90;;;;;;5059008;28;20431;-40
2022/05/15 03:34:16;;;;;;;7.20;2.30;;;12.70;99.90;;;;;;5058239;28;20463;-41
2022/05/15 03:36:46;;;;;;;4.07;3.00;;;12.60;99.90;;;;;;5058446;28;20462;-42
2022/05/15 03:39:15;;;;;;;5.40;2.70;;;12.60;99.90;;;;;;5058777;28;20467;-42
2022/05/15 03:41:42;;;;;;;5.53;2.37;;;12.60;99.90;;;;;;5058211;28;20451;-39
2022/05/15 03:44:10;;;;;;;6.30;2.50;;;12.60;99.90;;;;;;5058816;28;20501;-45
2022/05/15 03:46:43;;;;;;;6.10;2.67;;;12.60;99.90;;;;;;5057954;28;20966;-40
2022/05/15 03:49:11;;;;;;;7.90;2.90;;;12.60;99.90;;;;;;5058964;28;20475;-41
2022/05/15 03:51:38;;;;;;;6.53;2.53;;;12.60;99.90;;;;;;5057934;28;20529;-39
2022/05/15 03:54:09;;;;;;;8.50;2.90;;;12.60;99.90;;;;;;5059261;28;20475;-45
2022/05/15 03:56:53;;;;;;;7.53;2.77;;;12.60;99.90;;;;;;5059181;28;20440;-39
2022/05/15 03:59:22;;;;;;;7.00;2.60;;;12.60;99.90;;;;;;5059472;28;20475;-42
2022/05/15 04:01:49;;;;;;;4.83;2.10;;;12.70;99.90;;;;;;5059887;28;20940;-42
2022/05/15 04:04:16;;;;;;;5.53;2.50;;;12.70;99.90;;;;;;5059311;28;20486;-40
2022/05/15 04:06:47;;;;;;;6.10;2.30;;;12.70;99.90;;;;;;5058111;28;20482;-38
2022/05/15 04:09:14;;;;;;;5.13;2.83;;;12.70;99.90;;;;;;5058171;28;20478;-41
2022/05/15 04:11:43;;;;;;;7.17;2.53;;;12.70;99.90;;;;;;5058167;28;20447;-41
2022/05/15 04:14:09;;;;;;;6.20;2.77;;;12.70;99.90;;;;;;5057750;28;20468;-40
2022/05/15 04:16:36;;;;;;;8.23;3.07;;;12.70;99.90;;;;;;5057565;28;20452;-44
2022/05/15 04:19:04;;;;;;;6.07;2.90;;;12.70;99.90;;;;;;5057905;28;20471;-40
2022/05/15 04:21:36;;;;;;;4.20;3.00;;;12.70;99.90;;;;;;5057578;28;20451;-40
2022/05/15 04:24:04;;;;;;;4.13;2.57;;;12.70;99.90;;;;;;5057404;28;20498;-40
2022/05/15 04:26:30;;;;;;;8.23;2.87;;;12.70;99.90;;;;;;5057884;28;20447;-42
2022/05/15 04:28:58;;;;;;;7.43;2.50;;;12.70;99.90;;;;;;5057901;28;20467;-41
2022/05/15 04:31:25;;;;;;;10.77;2.60;;;12.80;99.90;;;;;;5057753;28;20455;-45
2022/05/15 04:33:52;;;;;;;4.07;3.20;;;12.80;99.90;;;;;;5057378;28;20474;-44
2022/05/15 04:36:18;;;;;;;4.63;2.30;;;12.80;99.90;;;;;;5058218;28;20443;-42
2022/05/15 04:38:45;;;;;;;4.77;2.70;;;12.90;99.90;;;;;;5058088;28;20467;-42
2022/05/15 04:41:12;;;;;;;7.00;2.63;;;12.90;99.90;;;;;;5057796;28;20443;-39
2022/05/15 04:43:38;;;;;;;8.30;2.80;;;13.00;99.90;;;;;;5057603;28;20487;-40
2022/05/15 04:46:09;;;;;;;6.03;2.83;;;13.00;99.90;;;;;;5058480;28;20455;-43
2022/05/15 04:48:36;;;;;;;4.90;2.70;;;13.00;99.90;;;;;;5057717;28;20547;-42
2022/05/15 04:51:03;;;;;;;4.23;2.80;;;13.10;99.90;;;;;;5057738;28;20473;-40
2022/05/15 04:53:30;;;;;;;8.47;2.70;;;13.10;99.90;;;;;;5057702;28;20489;-43
2022/05/15 04:55:57;;;;;;;5.87;2.10;;;13.10;99.90;;;;;;5057497;28;20440;-41
2022/05/15 04:58:24;;;;;;;4.00;1.57;;;13.10;99.90;;;;;;5058963;28;20446;-41
2022/05/15 05:00:51;;;;;;;3.63;2.10;;;13.20;99.90;;;;;;5061951;28;20442;-42
2022/05/15 05:03:19;;;;;;;4.60;1.80;;;13.20;99.90;;;;;;5061084;28;20983;-40
2022/05/15 05:05:49;;;;;;;7.17;1.90;;;13.30;99.90;;;;;;5061450;28;20461;-39
2022/05/15 05:08:16;;;;;;;4.50;1.60;;;13.30;99.90;;;;;;5061534;28;20761;-39
2022/05/15 05:10:46;;;;;;;3.63;2.10;;;13.30;99.90;;;;;;5061189;28;20481;-42
2022/05/15 05:13:13;;;;;;;9.63;2.03;;;13.40;99.90;;;;;;5061147;28;20446;-39
2022/05/15 05:15:40;;;;;;;5.80;1.43;;;13.30;99.90;;;;;;5061282;28;20462;-43
2022/05/15 05:18:07;;;;;;;3.80;1.80;;;13.30;99.90;;;;;;5061489;28;20911;-41
2022/05/15 05:20:35;;;;;;;3.10;1.93;;;13.40;99.90;;;;;;5061600;28;20904;-43
2022/05/15 05:23:02;;;;;;;4.93;1.73;;;13.40;99.90;;;;;;5061239;28;20512;-40
2022/05/15 05:25:29;;;;;;;6.33;2.03;;;13.50;99.90;;;;;;5060888;28;20542;-38
2022/05/15 05:27:56;;;;;;;5.57;1.80;;;13.50;99.90;;;;;;5060840;28;20970;-40
2022/05/15 05:30:25;;;;;;;7.33;1.70;;;13.60;99.90;;;;;;5060602;28;20454;-39
2022/05/15 05:32:52;;;;;;;4.60;1.53;;;13.60;99.90;;;;;;5060797;28;20440;-41
2022/05/15 05:35:20;;;;;;;6.30;2.17;;;13.60;99.90;;;;;;5060518;28;20471;-45
2022/05/15 05:37:48;;;;;;;4.07;1.97;;;13.60;99.90;;;;;;5060983;28;20516;-40
2022/05/15 05:40:17;;;;;;;2.80;1.47;;;13.70;99.90;;;;;;5060503;28;20944;-40
2022/05/15 05:42:44;;;;;;;4.60;1.80;;;13.70;99.90;;;;;;5060857;28;20451;-39
2022/05/15 05:45:11;;;;;;;3.67;1.80;;;13.80;99.90;;;;;;5060622;28;20467;-41
2022/05/15 05:47:39;;;;;;;6.53;1.93;;;13.80;99.90;;;;;;5060926;28;20451;-41
2022/05/15 05:50:08;;;;;;;6.83;1.90;;;13.80;99.90;;;;;;5060237;28;20471;-42
2022/05/15 05:52:35;;;;;;;5.83;2.30;;;13.90;99.90;;;;;;5059828;28;20463;-44
2022/05/15 05:55:03;;;;;;;4.30;1.90;;;13.90;99.90;;;;;;5059703;28;20467;-41
2022/05/15 05:57:30;;;;;;;3.33;1.43;;;14.00;99.90;;;;;;5060668;28;20508;-42
2022/05/15 05:59:57;;;;;;;2.83;1.63;;;14.00;99.90;;;;;;5059768;28;20470;-44
2022/05/15 06:02:25;;;;;;;3.57;1.60;;;14.00;99.90;;;;;;5059827;28;20455;-42
2022/05/15 06:04:51;;;;;;;2.60;1.60;;;14.00;99.90;;;;;;5060279;28;20558;-40
2022/05/15 06:07:20;;;;;;;5.53;2.20;;;14.10;99.90;;;;;;5060337;28;20477;-43
2022/05/15 06:09:48;;;;;;;2.87;1.50;;;14.10;99.90;;;;;;5063171;28;20831;-38
2022/05/15 06:12:19;;;;;;;8.73;2.70;;;14.10;99.90;;;;;;5061660;28;20920;-43
2022/05/15 06:14:48;;;;;;;4.60;1.97;;;14.20;99.90;;;;;;5061798;28;20471;-44
2022/05/15 06:17:15;;;;;;;2.93;1.63;;;14.20;99.90;;;;;;5061974;28;20454;-44
2022/05/15 06:19:42;;;;;;;6.83;1.83;;;14.30;99.90;;;;;;5062063;28;20471;-41
2022/05/15 06:22:09;;;;;;;2.60;1.50;;;14.40;99.90;;;;;;5062391;28;20443;-44
2022/05/15 06:24:35;;;;;;;4.33;1.60;;;14.50;99.90;;;;;;5061135;28;20541;-41
2022/05/15 06:27:03;;;;;;;4.70;1.90;;;14.50;99.90;;;;;;5061899;28;20434;-43
2022/05/15 06:29:31;;;;;;;6.10;2.13;;;14.60;99.90;;;;;;5062832;28;20451;-43
2022/05/15 06:31:59;;;;;;;1.87;1.50;;;14.60;99.90;;;;;;5062161;28;20432;-42
2022/05/15 06:34:26;;;;;;;4.17;1.73;;;14.70;99.90;;;;;;5062392;28;20448;-42
2022/05/15 06:36:52;;;;;;;4.37;2.10;;;14.70;99.90;;;;;;5062030;28;20447;-46
2022/05/15 06:39:19;;;;;;;3.00;1.30;;;14.80;99.90;;;;;;5063368;28;20455;-46
2022/05/15 06:41:50;;;;;;;5.20;1.90;;;14.80;99.90;;;;;;5062590;28;20451;-42
2022/05/15 06:44:17;;;;;;;2.60;1.63;;;14.80;99.90;;;;;;5062417;28;20471;-43
2022/05/15 06:46:45;;;;;;;2.27;1.50;;;14.80;99.90;;;;;;5062410;28;20455;-42
2022/05/15 06:49:17;;;;;;;4.00;1.90;;;14.80;99.90;;;;;;5061888;28;20447;-44
2022/05/15 06:51:44;;;;;;;4.03;1.93;;;14.90;99.90;;;;;;5060853;28;20942;-39
2022/05/15 06:54:11;;;;;;;4.40;1.80;;;14.90;99.90;;;;;;5061232;28;20449;-43
2022/05/15 06:59:22;;;;;;;6.80;2.10;;;15.10;99.90;;;;;;5060318;28;20417;-46
2022/05/15 07:01:50;;;;;;;7.13;2.00;;;15.10;99.90;;;;;;5060449;28;20448;-41
2022/05/15 07:04:17;;;;;;;5.60;1.57;;;15.20;99.90;;;;;;5060705;28;20475;-43
2022/05/15 07:06:49;;;;;;;2.90;1.97;;;15.20;99.90;;;;;;5060460;28;20443;-40
2022/05/15 07:09:15;;;;;;;4.37;1.47;;;15.30;99.90;;;;;;5060591;28;20453;-42
2022/05/15 07:11:44;;;;;;;1.53;1.13;;;15.40;99.90;;;;;;5060224;28;20447;-43
2022/05/15 07:14:14;;;;;;;3.63;1.33;;;15.60;99.90;;;;;;5060174;28;20486;-41
2022/05/15 07:16:41;;;;;;;4.20;1.40;;;16.60;99.90;;;;;;5059722;28;20458;-41
2022/05/15 07:19:09;;;;;;;4.70;2.03;;;18.10;99.90;;;;;;5059007;28;20526;-41
2022/05/15 07:21:36;;;;;;;3.63;2.00;;;19.80;99.90;;;;;;5058352;28;20478;-44
2022/05/15 07:24:03;;;;;;;3.47;1.70;;;21.50;99.90;;;;;;5058300;28;20486;-41
2022/05/15 07:26:29;;;;;;;3.03;1.73;;;23.40;94.80;;;;;;5056285;28;20607;-41
2022/05/15 07:28:56;;;;;;;3.00;1.70;;;25.00;85.60;;;;;;5057434;28;20443;-41
2022/05/15 07:31:23;;;;;;;4.80;1.93;;;25.60;77.30;;;;;;5057550;28;20463;-46
2022/05/15 07:33:50;;;;;;;4.23;2.07;;;25.50;72.80;;;;;;5056792;28;20912;-45
2022/05/15 07:36:18;;;;;;;6.53;1.73;;;25.10;71.20;;;;;;5056958;28;20463;-44
2022/05/15 07:38:45;;;;;;;3.10;1.70;;;25.10;71.20;;;;;;5037095;28;20525;-41
2022/05/15 07:41:12;;;;;;;4.87;1.70;;;25.70;69.00;;;;;;5045010;28;20471;-40
2022/05/15 07:43:39;;;;;;;2.97;2.33;;;26.60;62.60;;;;;;5057748;28;20478;-40
2022/05/15 07:46:05;;;;;;;4.10;2.10;;;27.20;62.10;;;;;;5057662;28;20471;-43
2022/05/15 07:48:32;;;;;;;3.30;2.00;;;27.90;58.50;;;;;;5058014;28;20444;-44
2022/05/15 07:50:59;;;;;;;5.97;2.20;;;28.80;57.10;;;;;;5057134;28;20501;-37
2022/05/15 07:53:27;;;;;;;3.60;1.70;;;29.00;54.90;;;;;;5056893;28;20435;-38
2022/05/15 07:55:55;;;;;;;3.83;1.97;;;29.00;53.70;;;;;;5056373;28;20517;-37
2022/05/15 07:58:23;;;;;;;3.20;1.90;;;28.90;53.50;;;;;;5056688;28;20466;-43
2022/05/15 08:00:52;;;;;;;3.33;1.50;;;28.90;54.10;;;;;;5056623;28;20514;-41
2022/05/15 08:03:19;;;;;;;6.50;2.10;;;29.20;52.80;;;;;;5056404;28;20451;-39
2022/05/15 08:08:32;;;;;;;2.80;1.70;;;29.20;51.90;;;;;;5056341;28;20423;-38
2022/05/15 08:11:00;;;;;;;2.63;1.67;;;28.80;51.00;;;;;;5056560;28;20458;-38
2022/05/15 08:13:28;;;;;;;3.50;1.83;;;28.90;50.90;;;;;;5056952;28;20431;-38
2022/05/15 08:15:55;;;;;;;2.47;2.10;;;29.40;51.10;;;;;;5056638;28;20513;-39
2022/05/15 08:23:55;;;;;;;2.63;1.40;;;29.70;47.60;;;;;;5039370;28;20838;-41
2022/05/15 08:26:22;;;;;;;1.60;1.40;;;29.50;47.80;;;;;;5056424;28;20440;-40
2022/05/15 08:28:49;;;;;;;3.20;1.50;;;29.40;47.60;;;;;;5055001;28;20435;-38
2022/05/15 08:31:19;;;;;;;2.70;1.70;;;29.30;47.30;;;;;;5054696;28;20482;-37
2022/05/15 08:33:46;;;;;;;2.13;1.37;;;29.30;47.10;;;;;;5053871;28;20454;-39
2022/05/15 08:36:14;;;;;;;5.97;1.90;;;29.20;47.20;;;;;;5055346;28;20459;-40
2022/05/15 08:38:41;;;;;;;3.03;2.00;;;29.40;46.40;;;;;;5055945;28;20481;-39
2022/05/15 08:41:22;;;;;;;4.07;1.50;;;29.50;46.90;;;;;;5056450;28;20470;-37
2022/05/15 08:43:52;;;;;;;2.97;2.33;;;29.70;45.60;;;;;;5055570;28;20848;-40
2022/05/15 08:46:32;;;;;;;4.73;1.73;;;29.70;45.90;;;;;;5056055;28;20521;-41
2022/05/15 08:49:07;;;;;;;4.10;1.83;;;29.90;45.30;;;;;;5056099;28;20427;-38
2022/05/15 08:51:34;;;;;;;5.20;1.50;;;29.80;45.20;;;;;;5056146;28;20478;-39
2022/05/15 08:54:04;;;;;;;1.87;1.50;;;29.90;44.60;;;;;;5055603;28;20502;-39
2022/05/15 08:56:39;;;;;;;2.73;1.60;;;29.60;44.00;;;;;;5055713;28;20454;-40
2022/05/15 08:59:19;;;;;;;3.30;1.90;;;29.70;44.10;;;;;;5056185;28;20476;-40
2022/05/15 09:01:55;;;;;;;3.10;1.70;;;29.80;43.20;;;;;;5055369;28;20451;-39
2022/05/15 09:04:23;;;;;;;3.60;1.90;;;30.20;43.60;;;;;;5056037;28;20462;-39
2022/05/15 09:07:04;;;;;;;3.30;1.40;;;30.20;43.70;;;;;;5056169;28;20479;-40
2022/05/15 09:09:39;;;;;;;1.70;1.30;;;30.20;42.30;;;;;;5056007;28;20450;-38
2022/05/15 09:12:16;;;;;;;2.07;1.47;;;30.00;41.40;;;;;;5055817;28;20455;-39
2022/05/15 09:15:00;;;;;;;2.47;1.57;;;30.10;42.00;;;;;;5056180;28;20427;-39
2022/05/15 09:17:33;;;;;;;8.07;7.07;;;30.20;42.30;;;;;;5055800;28;20494;-40
2022/05/15 09:20:05;;;;;;;3.30;2.00;;;30.30;42.30;;;;;;5055642;28;20427;-39
2022/05/15 09:22:36;;;;;;;5.40;2.40;;;30.20;41.70;;;;;;5056010;28;20489;-39
2022/05/15 09:25:13;;;;;;;3.20;1.70;;;30.00;42.10;;;;;;5058552;28;20479;-42
2022/05/15 09:27:58;;;;;;;2.30;1.67;;;29.80;42.40;;;;;;5054993;28;20478;-48
2022/05/15 09:30:25;;;;;;;3.50;1.80;;;29.80;42.10;;;;;;5054665;28;20431;-41
2022/05/15 09:32:57;;;;;;;3.17;1.53;;;29.90;42.30;;;;;;5055878;28;20482;-32
2022/05/15 09:35:32;;;;;;;5.73;2.10;;;30.00;42.70;;;;;;5078031;28;20408;-32
2022/05/15 09:43:32;;;;;;;2.27;1.67;;;30.00;43.20;;;;;;5071637;28;20431;-36
2022/05/15 09:46:00;;;;;;;2.47;1.73;;;30.00;42.10;;;;;;5069546;28;20475;-34
2022/05/15 09:48:36;;;;;;;2.50;1.53;;;30.10;42.10;;;;;;5076632;28;20459;-36
2022/05/15 09:51:08;;;;;;;3.90;1.70;;;30.50;41.90;;;;;;5078195;28;20438;-36
2022/05/15 09:53:42;;;;;;;3.40;1.67;;;30.60;42.00;;;;;;5077725;28;20447;-44
2022/05/15 09:56:13;;;;;;;7.37;1.70;;;30.70;41.80;;;;;;5077590;28;20408;-30
2022/05/15 09:58:49;;;;;;;3.53;1.47;;;30.70;41.40;;;;;;5076104;28;20473;-36
2022/05/15 10:01:24;;;;;;;3.93;1.60;;;30.80;41.20;;;;;;5078642;28;20416;-36
2022/05/15 10:03:52;;;;;;;4.63;1.40;;;30.80;41.60;;;;;;5077769;28;20462;-31
2022/05/15 10:06:22;;;;;;;2.40;1.50;;;30.50;41.30;;;;;;5076286;28;20527;-39
2022/05/15 10:09:07;;;;;;;2.30;1.53;;;30.20;40.80;;;;;;5077434;28;20462;-35
2022/05/15 10:11:36;;;;;;;1.77;1.37;;;29.90;41.60;;;;;;5078169;28;20412;-36
2022/05/15 10:14:06;;;;;;;3.47;1.50;;;29.80;41.50;;;;;;5077717;28;20467;-38
2022/05/15 10:16:35;;;;;;;4.80;2.03;;;29.60;41.80;;;;;;5076775;28;20471;-46
2022/05/15 10:19:06;;;;;;;1.70;1.23;;;29.70;42.60;;;;;;5077235;28;20470;-37
2022/05/15 10:21:38;;;;;;;7.43;1.90;;;29.70;41.50;;;;;;5077676;28;20554;-37
2022/05/15 10:24:13;;;;;;;9.40;1.73;;;29.60;41.50;;;;;;5059753;28;20486;-38
2022/05/15 10:26:47;;;;;;;2.63;1.97;;;29.40;42.30;;;;;;5077072;28;20427;-38
2022/05/15 10:29:23;;;;;;;2.27;1.73;;;29.30;41.90;;;;;;5075681;28;20471;-39
2022/05/15 10:31:55;;;;;;;3.20;1.60;;;28.90;42.60;;;;;;5076842;28;20455;-40
2022/05/15 10:34:26;;;;;;;3.23;1.70;;;28.80;42.40;;;;;;5075309;28;20466;-38
2022/05/15 10:37:06;;;;;;;4.20;2.17;;;28.70;43.30;;;;;;5076667;28;20479;-39
2022/05/15 10:39:45;;;;;;;3.13;1.30;;;28.50;43.40;;;;;;5077382;28;20471;-35
2022/05/15 10:42:23;;;;;;;3.10;2.10;;;28.20;43.70;;;;;;5077641;28;20549;-35
2022/05/15 10:45:00;;;;;;;2.50;1.83;;;28.00;43.00;;;;;;5075885;28;20491;-41
2022/05/15 10:47:32;;;;;;;2.83;1.70;;;27.60;43.40;;;;;;5077951;28;20435;-36
2022/05/15 10:50:18;;;;;;;3.20;2.07;;;27.30;44.00;;;;;;5078006;28;20463;-36
2022/05/15 10:52:57;;;;;;;3.57;1.77;;;26.90;43.30;;;;;;5076648;28;20465;-46
2022/05/15 10:58:29;;;;;;;2.93;1.37;;;26.50;44.40;;;;;;5077631;28;20403;-36
2022/05/15 11:01:06;;;;;;;2.00;1.40;;;26.20;44.80;;;;;;5076881;28;20569;-39
2022/05/15 11:03:59;;;;;;;3.67;1.47;;;26.00;45.00;;;;;;5076647;28;20613;-39
2022/05/15 11:06:51;;;;;;;2.07;1.80;;;25.70;44.70;;;;;;5077514;28;20471;-39
2022/05/15 11:09:24;;;;;;;1.37;1.03;;;25.40;45.30;;;;;;5075914;28;20424;-44
2022/05/15 11:12:02;;;;;;;2.07;1.40;;;24.90;46.10;;;;;;5075728;28;20423;-37
2022/05/15 11:14:35;;;;;;;2.20;1.70;;;24.90;46.60;;;;;;5076380;28;20434;-38
2022/05/15 11:17:13;;;;;;;3.90;1.50;;;25.00;46.60;;;;;;5074762;28;20427;-48
2022/05/15 11:19:43;;;;;;;2.43;1.67;;;24.80;46.30;;;;;;5076499;28;20446;-39
2022/05/15 11:22:24;;;;;;;2.13;1.43;;;24.80;45.90;;;;;;5076957;28;20436;-40
2022/05/15 11:24:57;;;;;;;1.30;1.20;;;24.90;47.10;;;;;;5076617;28;20483;-37
2022/05/15 11:27:29;;;;;;;3.53;1.33;;;24.90;46.60;;;;;;5076261;28;20457;-38
2022/05/15 11:30:02;;;;;;;2.43;1.47;;;24.90;46.80;;;;;;5076825;28;20451;-41
2022/05/15 11:32:39;;;;;;;2.07;1.47;;;25.00;46.30;;;;;;5075215;28;20469;-36
2022/05/15 11:35:23;;;;;;;2.10;1.20;;;25.00;45.90;;;;;;5076967;28;20478;-35
2022/05/15 11:38:02;;;;;;;2.97;1.57;;;24.90;45.90;;;;;;5075236;28;20784;-38
2022/05/15 11:40:32;;;;;;;1.83;1.57;;;24.90;46.40;;;;;;5074823;28;20467;-45
2022/05/15 11:42:59;;;;;;;3.37;2.03;;;24.90;46.10;;;;;;5076566;28;20427;-36
2022/05/15 11:45:51;;;;;;;1.77;1.30;;;24.80;45.80;;;;;;5074861;28;20475;-37
2022/05/15 11:48:24;;;;;;;2.50;1.90;;;24.70;46.30;;;;;;5076440;28;20427;-36
2022/05/15 11:50:58;;;;;;;5.20;1.40;;;24.70;45.90;;;;;;5075991;28;20471;-34
2022/05/15 11:53:33;;;;;;;1.67;1.30;;;24.50;45.60;;;;;;5077370;28;20457;-36
2022/05/15 11:56:20;;;;;;;2.20;1.30;;;24.30;46.20;;;;;;5076415;28;20513;-31
2022/05/15 11:58:57;;;;;;;1.80;1.50;;;24.20;46.20;;;;;;5076578;28;20416;-34
2022/05/15 12:01:49;;;;;;;1.97;1.40;;;24.20;46.50;;;;;;5075878;28;20477;-32
2022/05/15 12:04:51;;;;;;;1.30;1.20;;;24.20;46.40;;;;;;5074771;28;20408;-39
2022/05/15 12:07:32;;;;;;;2.43;1.20;;;24.10;45.70;;;;;;5072387;28;20471;-36
2022/05/15 12:09:59;;;;;;;1.40;1.20;;;23.90;46.20;;;;;;5074106;28;20461;-35
2022/05/15 12:12:52;;;;;;;1.67;1.10;;;23.80;46.40;;;;;;5075362;28;20439;-35
2022/05/15 12:15:38;;;;;;;1.67;1.20;;;23.60;46.50;;;;;;5075778;28;20473;-39
2022/05/15 12:18:19;;;;;;;3.47;1.77;;;23.60;46.70;;;;;;5075492;28;20431;-41
2022/05/15 12:20:51;;;;;;;5.10;2.20;;;23.60;46.60;;;;;;5076273;28;20439;-40
2022/05/15 12:23:21;;;;;;;4.73;1.80;;;23.60;46.60;;;;;;5074674;28;20452;-32
2022/05/15 12:25:55;;;;;;;2.17;1.50;;;23.60;47.90;;;;;;5076260;28;20501;-36
2022/05/15 12:31:18;;;;;;;2.30;1.90;;;23.60;46.90;;;;;;5074430;28;20458;-41
2022/05/15 12:33:46;;;;;;;2.87;1.60;;;23.60;47.30;;;;;;5073473;28;20430;-32
2022/05/15 12:36:16;;;;;;;1.60;1.03;;;23.70;46.60;;;;;;5072404;28;20426;-47
2022/05/15 12:38:48;;;;;;;3.37;2.70;;;23.60;45.90;;;;;;5074250;28;20443;-35
2022/05/15 12:41:23;;;;;;;4.03;1.80;;;23.50;47.60;;;;;;5074867;28;20454;-39
2022/05/15 12:43:51;;;;;;;1.50;1.20;;;23.50;46.80;;;;;;5074791;28;20419;-38
2022/05/15 12:46:25;;;;;;;1.93;1.50;;;23.50;46.40;;;;;;5074663;28;20483;-38
2022/05/15 12:48:52;;;;;;;2.27;1.40;;;23.40;47.20;;;;;;5074636;28;20450;-38
2022/05/15 12:51:27;;;;;;;2.27;1.50;;;23.40;47.00;;;;;;5074113;28;20451;-40
2022/05/15 12:53:57;;;;;;;2.60;1.93;;;23.40;46.80;;;;;;5073952;28;20476;-35
2022/05/15 12:56:27;;;;;;;1.50;1.40;;;23.50;46.90;;;;;;5074198;28;20435;-38
2022/05/15 12:58:59;;;;;;;1.50;1.27;;;23.50;47.00;;;;;;5073126;28;20443;-33
2022/05/15 13:01:29;;;;;;;4.33;1.63;;;23.50;46.20;;;;;;5073973;28;20447;-36
2022/05/15 13:03:57;;;;;;;2.07;1.37;;;23.50;46.60;;;;;;5074316;28;20427;-36
2022/05/15 13:06:35;;;;;;;2.37;1.27;;;23.60;46.80;;;;;;5074176;28;20502;-37
2022/05/15 13:09:06;;;;;;;1.60;1.30;;;23.60;47.00;;;;;;5074476;28;20438;-35
2022/05/15 13:11:40;;;;;;;2.27;1.07;;;23.60;47.00;;;;;;5074068;28;20468;-38
2022/05/15 13:14:15;;;;;;;2.90;1.53;;;23.70;47.70;;;;;;5074000;28;20428;-39
2022/05/15 13:16:49;;;;;;;2.00;1.10;;;23.60;47.40;;;;;;5074137;28;20465;-35
2022/05/15 13:19:18;;;;;;;2.17;1.30;;;23.60;47.30;;;;;;5075585;28;20443;-40
2022/05/15 13:21:49;;;;;;;2.57;1.43;;;23.60;47.50;;;;;;5077918;28;20443;-37
2022/05/15 13:24:19;;;;;;;2.30;1.40;;;23.70;47.60;;;;;;5078478;28;20423;-37
2022/05/15 13:26:48;;;;;;;2.10;1.60;;;23.70;47.70;;;;;;5077822;28;20516;-38